Terminal Aerodrome Forecast
Issued by NWS Twin Cities, MN

Home | Current Version | Previous Version | Text Only | Print | Product List | Glossary Off
Versions: 1 2 3 4 5 6 7 8 9 10 11 12 13 14 15

000
FTUS43 KMPX 181400 AAA
TAFSTC
TAF AMD
KSTC 181441Z 1815/1912 VRB03KT 1/2SM FG OVC002
     FM181600 22004KT 5SM BR BKN007 OVC025
     FM181800 25005KT P6SM VCSH BKN035 OVC110
      TEMPO 1819/1823 2SM TSRA SCT007CB BKN025
     FM182300 27007KT P6SM -SHRA BKN035
     FM190200 30004KT P6SM SCT050 BKN150
      TEMPO 1908/1912 2SM BR=

USA.gov is the U.S. government's official web portal to all federal, state and local government web resources and services.